sensor_id;sensor_type;location;lat;lon;timestamp;temperature;humidity
37300;DHT22;23184;51.902;12.836;2023-05-07T00:00:05;9.10;99.90
37300;DHT22;23184;51.902;12.836;2023-05-07T00:02:33;9.00;99.90
37300;DHT22;23184;51.902;12.836;2023-05-07T00:04:59;9.00;99.90
37300;DHT22;23184;51.902;12.836;2023-05-07T00:07:24;9.00;99.90
37300;DHT22;23184;51.902;12.836;2023-05-07T00:09:50;9.00;99.90
37300;DHT22;23184;51.902;12.836;2023-05-07T00:12:15;9.00;99.90
37300;DHT22;23184;51.902;12.836;2023-05-07T00:14:41;9.00;99.90
37300;DHT22;23184;51.902;12.836;2023-05-07T00:17:07;9.00;99.90
37300;DHT22;23184;51.902;12.836;2023-05-07T00:19:32;9.00;99.90
37300;DHT22;23184;51.902;12.836;2023-05-07T00:21:58;9.00;99.90
37300;DHT22;23184;51.902;12.836;2023-05-07T00:24:24;9.00;99.90
37300;DHT22;23184;51.902;12.836;2023-05-07T00:26:49;9.00;99.90
37300;DHT22;23184;51.902;12.836;2023-05-07T00:29:15;9.00;99.90
37300;DHT22;23184;51.902;12.836;2023-05-07T00:31:40;9.00;99.90
37300;DHT22;23184;51.902;12.836;2023-05-07T00:34:06;8.90;99.90
37300;DHT22;23184;51.902;12.836;2023-05-07T00:36:31;9.00;99.90
37300;DHT22;23184;51.902;12.836;2023-05-07T00:38:59;8.90;99.90
37300;DHT22;23184;51.902;12.836;2023-05-07T00:41:26;8.90;99.90
37300;DHT22;23184;51.902;12.836;2023-05-07T00:43:51;8.90;99.90
37300;DHT22;23184;51.902;12.836;2023-05-07T00:46:18;8.90;99.90
37300;DHT22;23184;51.902;12.836;2023-05-07T00:48:45;8.90;99.90
37300;DHT22;23184;51.902;12.836;2023-05-07T00:51:11;8.90;99.90
37300;DHT22;23184;51.902;12.836;2023-05-07T00:53:37;8.90;99.90
37300;DHT22;23184;51.902;12.836;2023-05-07T00:56:03;8.90;99.90
37300;DHT22;23184;51.902;12.836;2023-05-07T00:58:29;8.90;99.90
37300;DHT22;23184;51.902;12.836;2023-05-07T01:00:55;8.90;99.90
37300;DHT22;23184;51.902;12.836;2023-05-07T01:03:21;8.90;99.90
37300;DHT22;23184;51.902;12.836;2023-05-07T01:05:48;8.90;99.90
37300;DHT22;23184;51.902;12.836;2023-05-07T01:08:15;8.90;99.90
37300;DHT22;23184;51.902;12.836;2023-05-07T01:10:41;8.90;99.90
37300;DHT22;23184;51.902;12.836;2023-05-07T01:13:12;8.90;99.90
37300;DHT22;23184;51.902;12.836;2023-05-07T01:15:38;8.90;99.90
37300;DHT22;23184;51.902;12.836;2023-05-07T01:18:04;8.90;99.90
37300;DHT22;23184;51.902;12.836;2023-05-07T01:20:30;8.90;99.90
37300;DHT22;23184;51.902;12.836;2023-05-07T01:22:57;8.90;99.90
37300;DHT22;23184;51.902;12.836;2023-05-07T01:25:22;8.90;99.90
37300;DHT22;23184;51.902;12.836;2023-05-07T01:27:48;8.90;99.90
37300;DHT22;23184;51.902;12.836;2023-05-07T01:30:14;8.90;99.90
37300;DHT22;23184;51.902;12.836;2023-05-07T01:32:57;8.90;99.90
37300;DHT22;23184;51.902;12.836;2023-05-07T01:35:28;8.90;99.90
37300;DHT22;23184;51.902;12.836;2023-05-07T01:37:54;8.90;99.90
37300;DHT22;23184;51.902;12.836;2023-05-07T01:40:20;8.90;99.90
37300;DHT22;23184;51.902;12.836;2023-05-07T01:42:47;8.90;99.90
37300;DHT22;23184;51.902;12.836;2023-05-07T01:45:13;8.90;99.90
37300;DHT22;23184;51.902;12.836;2023-05-07T01:47:39;9.00;99.90
37300;DHT22;23184;51.902;12.836;2023-05-07T01:50:07;8.90;99.90
37300;DHT22;23184;51.902;12.836;2023-05-07T01:52:34;8.90;99.90
37300;DHT22;23184;51.902;12.836;2023-05-07T01:55:00;9.00;99.90
37300;DHT22;23184;51.902;12.836;2023-05-07T01:57:25;9.00;99.90
37300;DHT22;23184;51.902;12.836;2023-05-07T01:59:51;9.00;99.90
37300;DHT22;23184;51.902;12.836;2023-05-07T02:02:16;8.90;99.90
37300;DHT22;23184;51.902;12.836;2023-05-07T02:04:41;8.90;99.90
37300;DHT22;23184;51.902;12.836;2023-05-07T02:07:07;8.90;99.90
37300;DHT22;23184;51.902;12.836;2023-05-07T02:09:32;8.90;99.90
37300;DHT22;23184;51.902;12.836;2023-05-07T02:11:58;8.90;99.90
37300;DHT22;23184;51.902;12.836;2023-05-07T02:14:23;8.90;99.90
37300;DHT22;23184;51.902;12.836;2023-05-07T02:16:49;8.80;99.90
37300;DHT22;23184;51.902;12.836;2023-05-07T02:19:14;8.80;99.90
37300;DHT22;23184;51.902;12.836;2023-05-07T02:21:40;8.80;99.90
37300;DHT22;23184;51.902;12.836;2023-05-07T02:24:06;8.80;99.90
37300;DHT22;23184;51.902;12.836;2023-05-07T02:26:31;8.80;99.90
37300;DHT22;23184;51.902;12.836;2023-05-07T02:28:57;8.80;99.90
37300;DHT22;23184;51.902;12.836;2023-05-07T02:31:22;8.80;99.90
37300;DHT22;23184;51.902;12.836;2023-05-07T02:33:48;8.80;99.90
37300;DHT22;23184;51.902;12.836;2023-05-07T02:36:13;8.80;99.90
37300;DHT22;23184;51.902;12.836;2023-05-07T02:38:39;8.70;99.90
37300;DHT22;23184;51.902;12.836;2023-05-07T02:41:04;8.80;99.90
37300;DHT22;23184;51.902;12.836;2023-05-07T02:43:30;8.80;99.90
37300;DHT22;23184;51.902;12.836;2023-05-07T02:46:03;8.80;99.90
37300;DHT22;23184;51.902;12.836;2023-05-07T02:48:29;8.80;99.90
37300;DHT22;23184;51.902;12.836;2023-05-07T02:50:55;8.80;99.90
37300;DHT22;23184;51.902;12.836;2023-05-07T02:53:20;8.80;99.90
37300;DHT22;23184;51.902;12.836;2023-05-07T02:55:46;8.80;99.90
37300;DHT22;23184;51.902;12.836;2023-05-07T02:58:11;8.80;99.90
37300;DHT22;23184;51.902;12.836;2023-05-07T03:00:37;8.80;99.90
37300;DHT22;23184;51.902;12.836;2023-05-07T03:03:02;8.80;99.90
37300;DHT22;23184;51.902;12.836;2023-05-07T03:05:28;8.80;99.90
37300;DHT22;23184;51.902;12.836;2023-05-07T03:07:53;8.80;99.90
37300;DHT22;23184;51.902;12.836;2023-05-07T03:10:19;8.80;99.90
37300;DHT22;23184;51.902;12.836;2023-05-07T03:12:44;8.80;99.90
37300;DHT22;23184;51.902;12.836;2023-05-07T03:15:10;8.80;99.90
37300;DHT22;23184;51.902;12.836;2023-05-07T03:17:38;8.80;99.90
37300;DHT22;23184;51.902;12.836;2023-05-07T03:20:03;8.80;99.90
37300;DHT22;23184;51.902;12.836;2023-05-07T03:22:29;8.80;99.90
37300;DHT22;23184;51.902;12.836;2023-05-07T03:24:55;8.80;99.90
37300;DHT22;23184;51.902;12.836;2023-05-07T03:27:20;8.80;99.90
37300;DHT22;23184;51.902;12.836;2023-05-07T03:29:45;8.80;99.90
37300;DHT22;23184;51.902;12.836;2023-05-07T03:32:11;8.80;99.90
37300;DHT22;23184;51.902;12.836;2023-05-07T03:34:36;8.80;99.90
37300;DHT22;23184;51.902;12.836;2023-05-07T03:37:02;8.80;99.90
37300;DHT22;23184;51.902;12.836;2023-05-07T03:39:27;8.80;99.90
37300;DHT22;23184;51.902;12.836;2023-05-07T03:41:53;8.80;99.90
37300;DHT22;23184;51.902;12.836;2023-05-07T03:44:18;8.70;99.90
37300;DHT22;23184;51.902;12.836;2023-05-07T03:46:44;8.70;99.90
37300;DHT22;23184;51.902;12.836;2023-05-07T03:49:09;8.70;99.90
37300;DHT22;23184;51.902;12.836;2023-05-07T03:51:35;8.70;99.90
37300;DHT22;23184;51.902;12.836;2023-05-07T03:54:01;8.70;99.90
37300;DHT22;23184;51.902;12.836;2023-05-07T03:56:26;8.70;99.90
37300;DHT22;23184;51.902;12.836;2023-05-07T03:58:53;8.70;99.90
37300;DHT22;23184;51.902;12.836;2023-05-07T04:01:18;8.70;99.90
37300;DHT22;23184;51.902;12.836;2023-05-07T04:03:44;8.60;99.90
37300;DHT22;23184;51.902;12.836;2023-05-07T04:06:09;8.60;99.90
37300;DHT22;23184;51.902;12.836;2023-05-07T04:08:35;8.60;99.90
37300;DHT22;23184;51.902;12.836;2023-05-07T04:11:01;8.60;99.90
37300;DHT22;23184;51.902;12.836;2023-05-07T04:13:26;8.60;99.90
37300;DHT22;23184;51.902;12.836;2023-05-07T04:15:53;8.60;99.90
37300;DHT22;23184;51.902;12.836;2023-05-07T04:18:19;8.60;99.90
37300;DHT22;23184;51.902;12.836;2023-05-07T04:20:45;8.70;99.90
37300;DHT22;23184;51.902;12.836;2023-05-07T04:23:10;8.70;99.90
37300;DHT22;23184;51.902;12.836;2023-05-07T04:25:36;8.70;99.90
37300;DHT22;23184;51.902;12.836;2023-05-07T04:28:01;8.70;99.90
37300;DHT22;23184;51.902;12.836;2023-05-07T04:30:27;8.70;99.90
37300;DHT22;23184;51.902;12.836;2023-05-07T04:32:52;8.70;99.90
37300;DHT22;23184;51.902;12.836;2023-05-07T04:35:18;8.70;99.90
37300;DHT22;23184;51.902;12.836;2023-05-07T04:37:44;8.70;99.90
37300;DHT22;23184;51.902;12.836;2023-05-07T04:40:09;8.70;99.90
37300;DHT22;23184;51.902;12.836;2023-05-07T04:42:35;8.70;99.90
37300;DHT22;23184;51.902;12.836;2023-05-07T04:45:01;8.80;99.90
37300;DHT22;23184;51.902;12.836;2023-05-07T04:47:27;8.80;99.90
37300;DHT22;23184;51.902;12.836;2023-05-07T04:49:52;8.80;99.90
37300;DHT22;23184;51.902;12.836;2023-05-07T04:52:18;8.80;99.90
37300;DHT22;23184;51.902;12.836;2023-05-07T04:54:43;8.80;99.90
37300;DHT22;23184;51.902;12.836;2023-05-07T04:57:09;8.80;99.90
37300;DHT22;23184;51.902;12.836;2023-05-07T04:59:34;8.80;99.90
37300;DHT22;23184;51.902;12.836;2023-05-07T05:02:00;8.80;99.90
37300;DHT22;23184;51.902;12.836;2023-05-07T05:04:26;8.90;99.90
37300;DHT22;23184;51.902;12.836;2023-05-07T05:06:52;8.90;99.90
37300;DHT22;23184;51.902;12.836;2023-05-07T05:09:17;8.80;99.90
37300;DHT22;23184;51.902;12.836;2023-05-07T05:11:43;8.80;99.90
37300;DHT22;23184;51.902;12.836;2023-05-07T05:14:09;8.90;99.90
37300;DHT22;23184;51.902;12.836;2023-05-07T05:16:34;8.90;99.90
37300;DHT22;23184;51.902;12.836;2023-05-07T05:19:00;8.90;99.90
37300;DHT22;23184;51.902;12.836;2023-05-07T05:21:26;8.90;99.90
37300;DHT22;23184;51.902;12.836;2023-05-07T05:23:51;9.00;99.90
37300;DHT22;23184;51.902;12.836;2023-05-07T05:26:17;9.00;99.90
37300;DHT22;23184;51.902;12.836;2023-05-07T05:28:42;9.00;99.90
37300;DHT22;23184;51.902;12.836;2023-05-07T05:31:08;9.00;99.90
37300;DHT22;23184;51.902;12.836;2023-05-07T05:33:33;9.00;99.90
37300;DHT22;23184;51.902;12.836;2023-05-07T05:35:59;9.10;99.90
37300;DHT22;23184;51.902;12.836;2023-05-07T05:38:24;9.10;99.90
37300;DHT22;23184;51.902;12.836;2023-05-07T05:40:51;9.10;99.90
37300;DHT22;23184;51.902;12.836;2023-05-07T05:43:16;9.10;99.90
37300;DHT22;23184;51.902;12.836;2023-05-07T05:45:42;9.20;99.90
37300;DHT22;23184;51.902;12.836;2023-05-07T05:48:07;9.20;99.90
37300;DHT22;23184;51.902;12.836;2023-05-07T05:50:34;9.20;99.90
37300;DHT22;23184;51.902;12.836;2023-05-07T05:53:01;9.20;99.90
37300;DHT22;23184;51.902;12.836;2023-05-07T05:55:26;9.20;99.90
37300;DHT22;23184;51.902;12.836;2023-05-07T05:57:52;9.20;99.90
37300;DHT22;23184;51.902;12.836;2023-05-07T06:00:17;9.20;99.90
37300;DHT22;23184;51.902;12.836;2023-05-07T06:02:44;9.20;99.90
37300;DHT22;23184;51.902;12.836;2023-05-07T06:05:09;9.30;99.90
37300;DHT22;23184;51.902;12.836;2023-05-07T06:07:35;9.20;99.90
37300;DHT22;23184;51.902;12.836;2023-05-07T06:10:01;9.20;99.90
37300;DHT22;23184;51.902;12.836;2023-05-07T06:12:26;9.20;99.90
37300;DHT22;23184;51.902;12.836;2023-05-07T06:14:52;9.20;99.90
37300;DHT22;23184;51.902;12.836;2023-05-07T06:17:17;9.20;99.90
37300;DHT22;23184;51.902;12.836;2023-05-07T06:19:43;9.20;99.90
37300;DHT22;23184;51.902;12.836;2023-05-07T06:22:09;9.20;99.90
37300;DHT22;23184;51.902;12.836;2023-05-07T06:24:35;9.10;99.90
37300;DHT22;23184;51.902;12.836;2023-05-07T06:27:00;9.00;99.90
37300;DHT22;23184;51.902;12.836;2023-05-07T06:29:26;9.00;99.90
37300;DHT22;23184;51.902;12.836;2023-05-07T06:31:53;9.00;99.90
37300;DHT22;23184;51.902;12.836;2023-05-07T06:34:18;9.00;99.90
37300;DHT22;23184;51.902;12.836;2023-05-07T06:36:44;9.00;99.90
37300;DHT22;23184;51.902;12.836;2023-05-07T06:39:09;9.10;99.90
37300;DHT22;23184;51.902;12.836;2023-05-07T06:41:35;9.20;99.90
37300;DHT22;23184;51.902;12.836;2023-05-07T06:44:01;9.20;99.90
37300;DHT22;23184;51.902;12.836;2023-05-07T06:46:28;9.20;99.90
37300;DHT22;23184;51.902;12.836;2023-05-07T06:48:53;9.20;99.90
37300;DHT22;23184;51.902;12.836;2023-05-07T06:51:19;9.30;99.90
37300;DHT22;23184;51.902;12.836;2023-05-07T06:53:44;9.20;99.90
37300;DHT22;23184;51.902;12.836;2023-05-07T06:56:10;9.20;99.90
37300;DHT22;23184;51.902;12.836;2023-05-07T06:58:36;9.30;99.90
37300;DHT22;23184;51.902;12.836;2023-05-07T07:01:01;9.20;99.90
37300;DHT22;23184;51.902;12.836;2023-05-07T07:03:27;9.20;99.90
37300;DHT22;23184;51.902;12.836;2023-05-07T07:05:53;9.20;99.90
37300;DHT22;23184;51.902;12.836;2023-05-07T07:08:19;9.30;99.90
37300;DHT22;23184;51.902;12.836;2023-05-07T07:10:46;9.30;99.90
37300;DHT22;23184;51.902;12.836;2023-05-07T07:13:12;9.40;99.90
37300;DHT22;23184;51.902;12.836;2023-05-07T07:15:37;9.40;99.90
37300;DHT22;23184;51.902;12.836;2023-05-07T07:18:03;9.40;99.90
37300;DHT22;23184;51.902;12.836;2023-05-07T07:20:28;9.50;99.90
37300;DHT22;23184;51.902;12.836;2023-05-07T07:22:54;9.40;99.90
37300;DHT22;23184;51.902;12.836;2023-05-07T07:25:19;9.40;99.90
37300;DHT22;23184;51.902;12.836;2023-05-07T07:27:45;9.40;99.90
37300;DHT22;23184;51.902;12.836;2023-05-07T07:30:10;9.40;99.90
37300;DHT22;23184;51.902;12.836;2023-05-07T07:32:37;9.40;99.90
37300;DHT22;23184;51.902;12.836;2023-05-07T07:35:03;9.50;99.90
37300;DHT22;23184;51.902;12.836;2023-05-07T07:37:28;9.60;99.90
37300;DHT22;23184;51.902;12.836;2023-05-07T07:39:55;9.60;99.90
37300;DHT22;23184;51.902;12.836;2023-05-07T07:42:20;9.70;99.90
37300;DHT22;23184;51.902;12.836;2023-05-07T07:44:46;9.80;99.90
37300;DHT22;23184;51.902;12.836;2023-05-07T07:47:11;9.90;99.90
37300;DHT22;23184;51.902;12.836;2023-05-07T07:49:37;9.90;99.90
37300;DHT22;23184;51.902;12.836;2023-05-07T07:52:02;9.90;99.90
37300;DHT22;23184;51.902;12.836;2023-05-07T07:54:28;10.00;99.90
37300;DHT22;23184;51.902;12.836;2023-05-07T07:56:54;9.90;99.90
37300;DHT22;23184;51.902;12.836;2023-05-07T07:59:20;9.90;99.90
37300;DHT22;23184;51.902;12.836;2023-05-07T08:01:45;9.90;99.90
37300;DHT22;23184;51.902;12.836;2023-05-07T08:04:11;9.80;99.90
37300;DHT22;23184;51.902;12.836;2023-05-07T08:06:36;9.90;99.90
37300;DHT22;23184;51.902;12.836;2023-05-07T08:09:02;10.00;99.90
37300;DHT22;23184;51.902;12.836;2023-05-07T08:11:28;10.00;99.90
37300;DHT22;23184;51.902;12.836;2023-05-07T08:13:54;10.00;99.90
37300;DHT22;23184;51.902;12.836;2023-05-07T08:16:20;10.00;99.90
37300;DHT22;23184;51.902;12.836;2023-05-07T08:18:45;10.00;99.90
37300;DHT22;23184;51.902;12.836;2023-05-07T08:21:11;10.00;99.90
37300;DHT22;23184;51.902;12.836;2023-05-07T08:23:36;10.00;99.90
37300;DHT22;23184;51.902;12.836;2023-05-07T08:26:02;10.10;99.90
37300;DHT22;23184;51.902;12.836;2023-05-07T08:28:27;10.10;99.90
37300;DHT22;23184;51.902;12.836;2023-05-07T08:30:53;10.20;99.90
37300;DHT22;23184;51.902;12.836;2023-05-07T08:33:19;10.30;99.90
37300;DHT22;23184;51.902;12.836;2023-05-07T08:35:44;10.10;99.90
37300;DHT22;23184;51.902;12.836;2023-05-07T08:38:09;10.10;99.90
37300;DHT22;23184;51.902;12.836;2023-05-07T08:40:38;10.10;99.90
37300;DHT22;23184;51.902;12.836;2023-05-07T08:43:06;10.10;99.90
37300;DHT22;23184;51.902;12.836;2023-05-07T08:45:33;10.30;99.90
37300;DHT22;23184;51.902;12.836;2023-05-07T08:48:01;10.60;99.90
37300;DHT22;23184;51.902;12.836;2023-05-07T08:50:27;10.90;99.90
37300;DHT22;23184;51.902;12.836;2023-05-07T08:52:52;11.00;99.90
37300;DHT22;23184;51.902;12.836;2023-05-07T08:55:18;11.00;99.90
37300;DHT22;23184;51.902;12.836;2023-05-07T08:57:44;11.10;99.90
37300;DHT22;23184;51.902;12.836;2023-05-07T09:00:10;11.20;99.90
37300;DHT22;23184;51.902;12.836;2023-05-07T09:02:36;11.30;99.90
37300;DHT22;23184;51.902;12.836;2023-05-07T09:05:02;11.40;99.90
37300;DHT22;23184;51.902;12.836;2023-05-07T09:07:28;11.40;99.90
37300;DHT22;23184;51.902;12.836;2023-05-07T09:09:53;11.40;99.90
37300;DHT22;23184;51.902;12.836;2023-05-07T09:12:21;11.30;99.90
37300;DHT22;23184;51.902;12.836;2023-05-07T09:14:46;11.30;99.90
37300;DHT22;23184;51.902;12.836;2023-05-07T09:17:12;11.20;99.90
37300;DHT22;23184;51.902;12.836;2023-05-07T09:19:38;11.20;99.90
37300;DHT22;23184;51.902;12.836;2023-05-07T09:22:05;11.20;99.90
37300;DHT22;23184;51.902;12.836;2023-05-07T09:24:32;11.10;99.90
37300;DHT22;23184;51.902;12.836;2023-05-07T09:27:01;11.00;99.90
37300;DHT22;23184;51.902;12.836;2023-05-07T09:29:28;11.10;99.90
37300;DHT22;23184;51.902;12.836;2023-05-07T09:32:01;11.20;99.90
37300;DHT22;23184;51.902;12.836;2023-05-07T09:34:29;11.50;99.90
37300;DHT22;23184;51.902;12.836;2023-05-07T09:36:55;11.50;99.90
37300;DHT22;23184;51.902;12.836;2023-05-07T09:39:23;11.60;99.90
37300;DHT22;23184;51.902;12.836;2023-05-07T09:41:48;11.70;99.90
37300;DHT22;23184;51.902;12.836;2023-05-07T09:44:20;11.70;99.90
37300;DHT22;23184;51.902;12.836;2023-05-07T09:46:47;11.70;99.90
37300;DHT22;23184;51.902;12.836;2023-05-07T09:49:22;11.60;99.90
37300;DHT22;23184;51.902;12.836;2023-05-07T09:51:49;11.60;99.90
37300;DHT22;23184;51.902;12.836;2023-05-07T09:54:16;11.70;99.90
37300;DHT22;23184;51.902;12.836;2023-05-07T09:56:43;11.70;99.90
37300;DHT22;23184;51.902;12.836;2023-05-07T09:59:15;11.90;99.90
37300;DHT22;23184;51.902;12.836;2023-05-07T10:01:44;11.90;99.90
37300;DHT22;23184;51.902;12.836;2023-05-07T10:04:11;11.90;99.90
37300;DHT22;23184;51.902;12.836;2023-05-07T10:06:37;11.60;99.90
37300;DHT22;23184;51.902;12.836;2023-05-07T10:09:03;11.60;99.90
37300;DHT22;23184;51.902;12.836;2023-05-07T10:11:35;11.50;99.90
37300;DHT22;23184;51.902;12.836;2023-05-07T10:14:04;11.40;99.90
37300;DHT22;23184;51.902;12.836;2023-05-07T10:16:35;11.40;99.90
37300;DHT22;23184;51.902;12.836;2023-05-07T10:19:04;11.20;99.90
37300;DHT22;23184;51.902;12.836;2023-05-07T10:21:30;11.30;99.90
37300;DHT22;23184;51.902;12.836;2023-05-07T10:24:04;11.30;99.90
37300;DHT22;23184;51.902;12.836;2023-05-07T10:26:32;11.40;99.90
37300;DHT22;23184;51.902;12.836;2023-05-07T10:29:03;11.40;99.90
37300;DHT22;23184;51.902;12.836;2023-05-07T10:31:41;11.70;99.90
37300;DHT22;23184;51.902;12.836;2023-05-07T10:34:11;11.90;99.90
37300;DHT22;23184;51.902;12.836;2023-05-07T10:36:38;12.10;99.90
37300;DHT22;23184;51.902;12.836;2023-05-07T10:39:05;12.10;99.90
37300;DHT22;23184;51.902;12.836;2023-05-07T10:41:31;12.20;99.90
37300;DHT22;23184;51.902;12.836;2023-05-07T10:43:57;12.10;99.90
37300;DHT22;23184;51.902;12.836;2023-05-07T10:46:23;12.10;99.90
37300;DHT22;23184;51.902;12.836;2023-05-07T10:51:26;11.80;99.90
37300;DHT22;23184;51.902;12.836;2023-05-07T10:56:43;11.50;99.90
37300;DHT22;23184;51.902;12.836;2023-05-07T11:02:04;11.40;99.90
37300;DHT22;23184;51.902;12.836;2023-05-07T11:04:32;11.50;99.90
37300;DHT22;23184;51.902;12.836;2023-05-07T11:09:59;11.60;99.90
37300;DHT22;23184;51.902;12.836;2023-05-07T11:12:47;11.60;99.90
37300;DHT22;23184;51.902;12.836;2023-05-07T11:15:13;11.70;99.90
37300;DHT22;23184;51.902;12.836;2023-05-07T11:17:58;12.00;99.90
37300;DHT22;23184;51.902;12.836;2023-05-07T11:26:09;11.80;99.90
37300;DHT22;23184;51.902;12.836;2023-05-07T11:28:40;11.90;99.90
37300;DHT22;23184;51.902;12.836;2023-05-07T11:31:06;11.90;99.90
37300;DHT22;23184;51.902;12.836;2023-05-07T11:33:32;12.00;99.90
37300;DHT22;23184;51.902;12.836;2023-05-07T11:35:59;11.90;99.90
37300;DHT22;23184;51.902;12.836;2023-05-07T11:38:25;11.80;99.90
37300;DHT22;23184;51.902;12.836;2023-05-07T11:40:57;11.80;99.90
37300;DHT22;23184;51.902;12.836;2023-05-07T11:43:24;11.70;99.90
37300;DHT22;23184;51.902;12.836;2023-05-07T11:45:49;11.70;99.90
37300;DHT22;23184;51.902;12.836;2023-05-07T11:48:16;11.60;99.90
37300;DHT22;23184;51.902;12.836;2023-05-07T11:50:51;11.60;99.90
37300;DHT22;23184;51.902;12.836;2023-05-07T11:53:18;11.70;99.90
37300;DHT22;23184;51.902;12.836;2023-05-07T11:55:44;11.80;99.90
37300;DHT22;23184;51.902;12.836;2023-05-07T11:58:11;11.90;99.90
37300;DHT22;23184;51.902;12.836;2023-05-07T12:00:37;12.10;99.90
37300;DHT22;23184;51.902;12.836;2023-05-07T12:03:04;12.10;99.90
37300;DHT22;23184;51.902;12.836;2023-05-07T12:05:30;12.40;99.90
37300;DHT22;23184;51.902;12.836;2023-05-07T12:07:59;12.60;99.90
37300;DHT22;23184;51.902;12.836;2023-05-07T12:10:24;12.60;99.90
37300;DHT22;23184;51.902;12.836;2023-05-07T12:12:50;12.60;99.90
37300;DHT22;23184;51.902;12.836;2023-05-07T12:15:16;12.40;99.90
37300;DHT22;23184;51.902;12.836;2023-05-07T12:17:42;12.20;99.90
37300;DHT22;23184;51.902;12.836;2023-05-07T12:20:08;12.10;99.90
37300;DHT22;23184;51.902;12.836;2023-05-07T12:22:35;12.10;99.90
37300;DHT22;23184;51.902;12.836;2023-05-07T12:25:00;12.10;99.90
37300;DHT22;23184;51.902;12.836;2023-05-07T12:27:26;12.20;99.90
37300;DHT22;23184;51.902;12.836;2023-05-07T12:29:51;12.20;99.90
37300;DHT22;23184;51.902;12.836;2023-05-07T12:32:18;12.30;99.90
37300;DHT22;23184;51.902;12.836;2023-05-07T12:34:45;12.30;99.90
37300;DHT22;23184;51.902;12.836;2023-05-07T12:37:11;12.30;99.90
37300;DHT22;23184;51.902;12.836;2023-05-07T12:39:37;12.20;99.90
37300;DHT22;23184;51.902;12.836;2023-05-07T12:42:03;12.30;99.90
37300;DHT22;23184;51.902;12.836;2023-05-07T12:44:31;12.20;99.90
37300;DHT22;23184;51.902;12.836;2023-05-07T12:46:57;12.30;99.90
37300;DHT22;23184;51.902;12.836;2023-05-07T12:49:23;12.30;99.90
37300;DHT22;23184;51.902;12.836;2023-05-07T12:51:49;12.30;99.90
37300;DHT22;23184;51.902;12.836;2023-05-07T12:54:31;12.30;99.90
37300;DHT22;23184;51.902;12.836;2023-05-07T12:57:09;12.20;99.90
37300;DHT22;23184;51.902;12.836;2023-05-07T12:59:37;12.30;99.90
37300;DHT22;23184;51.902;12.836;2023-05-07T13:02:03;12.50;99.90
37300;DHT22;23184;51.902;12.836;2023-05-07T13:04:29;12.60;99.90
37300;DHT22;23184;51.902;12.836;2023-05-07T13:06:54;12.70;99.90
37300;DHT22;23184;51.902;12.836;2023-05-07T13:09:20;12.80;99.90
37300;DHT22;23184;51.902;12.836;2023-05-07T13:11:45;13.00;99.90
37300;DHT22;23184;51.902;12.836;2023-05-07T13:14:12;13.40;99.90
37300;DHT22;23184;51.902;12.836;2023-05-07T13:16:37;13.80;99.90
37300;DHT22;23184;51.902;12.836;2023-05-07T13:19:02;14.10;99.90
37300;DHT22;23184;51.902;12.836;2023-05-07T13:21:28;14.30;99.90
37300;DHT22;23184;51.902;12.836;2023-05-07T13:23:53;14.30;99.90
37300;DHT22;23184;51.902;12.836;2023-05-07T13:26:19;14.60;99.90
37300;DHT22;23184;51.902;12.836;2023-05-07T13:28:45;14.50;99.90
37300;DHT22;23184;51.902;12.836;2023-05-07T13:31:11;14.40;99.90
37300;DHT22;23184;51.902;12.836;2023-05-07T13:33:37;14.30;99.90
37300;DHT22;23184;51.902;12.836;2023-05-07T13:36:02;14.50;99.90
37300;DHT22;23184;51.902;12.836;2023-05-07T13:38:30;14.50;99.90
37300;DHT22;23184;51.902;12.836;2023-05-07T13:40:56;14.60;99.90
37300;DHT22;23184;51.902;12.836;2023-05-07T13:43:21;14.40;99.90
37300;DHT22;23184;51.902;12.836;2023-05-07T13:45:47;14.30;99.90
37300;DHT22;23184;51.902;12.836;2023-05-07T13:48:12;14.00;99.90
37300;DHT22;23184;51.902;12.836;2023-05-07T13:50:38;14.20;99.90
37300;DHT22;23184;51.902;12.836;2023-05-07T13:53:03;14.40;99.90
37300;DHT22;23184;51.902;12.836;2023-05-07T13:55:29;14.10;99.90
37300;DHT22;23184;51.902;12.836;2023-05-07T13:57:56;14.20;99.90
37300;DHT22;23184;51.902;12.836;2023-05-07T14:00:22;14.10;99.90
37300;DHT22;23184;51.902;12.836;2023-05-07T14:02:48;14.30;99.90
37300;DHT22;23184;51.902;12.836;2023-05-07T14:05:14;14.90;99.90
37300;DHT22;23184;51.902;12.836;2023-05-07T14:07:39;15.70;99.90
37300;DHT22;23184;51.902;12.836;2023-05-07T14:10:05;16.10;99.90
37300;DHT22;23184;51.902;12.836;2023-05-07T14:12:32;15.90;99.90
37300;DHT22;23184;51.902;12.836;2023-05-07T14:14:58;15.70;99.90
37300;DHT22;23184;51.902;12.836;2023-05-07T14:17:23;15.50;99.90
37300;DHT22;23184;51.902;12.836;2023-05-07T14:19:51;15.00;99.90
37300;DHT22;23184;51.902;12.836;2023-05-07T14:22:22;14.60;99.90
37300;DHT22;23184;51.902;12.836;2023-05-07T14:24:48;14.50;99.90
37300;DHT22;23184;51.902;12.836;2023-05-07T14:27:14;14.40;99.90
37300;DHT22;23184;51.902;12.836;2023-05-07T14:29:40;14.20;99.90
37300;DHT22;23184;51.902;12.836;2023-05-07T14:32:06;14.40;99.90
37300;DHT22;23184;51.902;12.836;2023-05-07T14:34:31;15.10;99.90
37300;DHT22;23184;51.902;12.836;2023-05-07T14:36:57;15.00;99.90
37300;DHT22;23184;51.902;12.836;2023-05-07T14:39:23;15.40;99.90
37300;DHT22;23184;51.902;12.836;2023-05-07T14:41:49;15.60;99.90
37300;DHT22;23184;51.902;12.836;2023-05-07T14:44:14;15.70;99.90
37300;DHT22;23184;51.902;12.836;2023-05-07T14:46:40;15.50;99.90
37300;DHT22;23184;51.902;12.836;2023-05-07T14:49:06;15.40;99.90
37300;DHT22;23184;51.902;12.836;2023-05-07T14:51:32;15.70;99.90
37300;DHT22;23184;51.902;12.836;2023-05-07T14:53:58;15.50;99.90
37300;DHT22;23184;51.902;12.836;2023-05-07T14:56:24;15.90;99.90
37300;DHT22;23184;51.902;12.836;2023-05-07T14:58:49;15.60;99.90
37300;DHT22;23184;51.902;12.836;2023-05-07T15:01:15;15.50;99.90
37300;DHT22;23184;51.902;12.836;2023-05-07T15:03:40;15.40;99.90
37300;DHT22;23184;51.902;12.836;2023-05-07T15:06:06;15.10;99.90
37300;DHT22;23184;51.902;12.836;2023-05-07T15:08:32;15.00;99.90
37300;DHT22;23184;51.902;12.836;2023-05-07T15:10:57;14.70;99.90
37300;DHT22;23184;51.902;12.836;2023-05-07T15:13:23;14.40;99.90
37300;DHT22;23184;51.902;12.836;2023-05-07T15:15:48;14.10;99.90
37300;DHT22;23184;51.902;12.836;2023-05-07T15:18:15;14.10;99.90
37300;DHT22;23184;51.902;12.836;2023-05-07T15:20:41;14.30;99.90
37300;DHT22;23184;51.902;12.836;2023-05-07T15:23:08;14.50;99.90
37300;DHT22;23184;51.902;12.836;2023-05-07T15:25:39;14.50;99.90
37300;DHT22;23184;51.902;12.836;2023-05-07T15:28:05;14.50;99.90
37300;DHT22;23184;51.902;12.836;2023-05-07T15:30:31;14.60;99.90
37300;DHT22;23184;51.902;12.836;2023-05-07T15:32:56;14.60;99.90
37300;DHT22;23184;51.902;12.836;2023-05-07T15:35:22;14.50;99.90